sensor_id;sensor_type;location;lat;lon;timestamp;pressure;altitude;pressure_sealevel;temperature;humidity
61814;BME280;57055;-35.296;149.168;2023-05-24T00:00:04;96228.07;;;2.51;65.51
61814;BME280;57055;-35.296;149.168;2023-05-24T00:02:33;96231.08;;;2.58;65.79
61814;BME280;57055;-35.296;149.168;2023-05-24T00:05:02;96230.36;;;2.49;66.47
61814;BME280;57055;-35.296;149.168;2023-05-24T00:07:31;96227.60;;;2.60;66.84
61814;BME280;57055;-35.296;149.168;2023-05-24T00:10:00;96231.78;;;2.27;66.61
61814;BME280;57055;-35.296;149.168;2023-05-24T00:12:28;96234.29;;;2.56;66.72
61814;BME280;57055;-35.296;149.168;2023-05-24T00:14:57;96231.76;;;2.66;66.69
61814;BME280;57055;-35.296;149.168;2023-05-24T00:17:27;96234.06;;;2.90;66.33
61814;BME280;57055;-35.296;149.168;2023-05-24T00:19:55;96231.04;;;2.35;66.69
61814;BME280;57055;-35.296;149.168;2023-05-24T00:22:24;96228.01;;;2.44;66.47
61814;BME280;57055;-35.296;149.168;2023-05-24T00:24:53;96225.65;;;3.05;66.57
61814;BME280;57055;-35.296;149.168;2023-05-24T00:27:22;96220.82;;;3.12;66.14
61814;BME280;57055;-35.296;149.168;2023-05-24T00:29:51;96220.94;;;3.03;66.17
61814;BME280;57055;-35.296;149.168;2023-05-24T00:32:20;96220.75;;;2.78;65.43
61814;BME280;57055;-35.296;149.168;2023-05-24T00:34:48;96215.76;;;2.85;65.57
61814;BME280;57055;-35.296;149.168;2023-05-24T00:37:17;96218.83;;;2.90;65.57
61814;BME280;57055;-35.296;149.168;2023-05-24T00:39:46;96216.75;;;3.02;65.19
61814;BME280;57055;-35.296;149.168;2023-05-24T00:42:16;96213.66;;;3.08;65.15
61814;BME280;57055;-35.296;149.168;2023-05-24T00:44:45;96210.05;;;3.16;65.42
61814;BME280;57055;-35.296;149.168;2023-05-24T00:47:15;96210.23;;;2.85;65.22
61814;BME280;57055;-35.296;149.168;2023-05-24T00:49:44;96206.78;;;3.05;65.00
61814;BME280;57055;-35.296;149.168;2023-05-24T00:52:14;96206.18;;;3.44;65.58
61814;BME280;57055;-35.296;149.168;2023-05-24T00:54:44;96200.98;;;3.01;65.44
61814;BME280;57055;-35.296;149.168;2023-05-24T00:57:13;96199.00;;;3.23;65.24
61814;BME280;57055;-35.296;149.168;2023-05-24T00:59:42;96202.22;;;3.43;64.75
61814;BME280;57055;-35.296;149.168;2023-05-24T01:02:12;96189.50;;;3.54;65.32
61814;BME280;57055;-35.296;149.168;2023-05-24T01:04:41;96187.75;;;3.57;65.21
61814;BME280;57055;-35.296;149.168;2023-05-24T01:07:17;96184.62;;;3.70;64.72
61814;BME280;57055;-35.296;149.168;2023-05-24T01:09:59;96179.33;;;4.36;63.49
61814;BME280;57055;-35.296;149.168;2023-05-24T01:12:38;96172.71;;;4.26;63.00
61814;BME280;57055;-35.296;149.168;2023-05-24T01:15:17;96171.36;;;4.50;62.60
61814;BME280;57055;-35.296;149.168;2023-05-24T01:17:57;96163.06;;;4.62;62.19
61814;BME280;57055;-35.296;149.168;2023-05-24T01:20:29;96156.96;;;4.69;62.21
61814;BME280;57055;-35.296;149.168;2023-05-24T01:23:19;96149.19;;;4.78;62.02
61814;BME280;57055;-35.296;149.168;2023-05-24T01:26:36;96139.28;;;4.50;61.77
61814;BME280;57055;-35.296;149.168;2023-05-24T01:29:06;96136.91;;;4.80;61.48
61814;BME280;57055;-35.296;149.168;2023-05-24T01:31:36;96134.34;;;4.82;61.52
61814;BME280;57055;-35.296;149.168;2023-05-24T01:34:06;96133.27;;;5.56;61.05
61814;BME280;57055;-35.296;149.168;2023-05-24T01:36:35;96128.39;;;5.23;60.91
61814;BME280;57055;-35.296;149.168;2023-05-24T01:39:04;96124.67;;;5.44;60.65
61814;BME280;57055;-35.296;149.168;2023-05-24T01:41:40;96123.56;;;5.42;60.60
61814;BME280;57055;-35.296;149.168;2023-05-24T01:44:18;96115.28;;;5.84;60.27
61814;BME280;57055;-35.296;149.168;2023-05-24T01:46:56;96107.45;;;5.84;60.13
61814;BME280;57055;-35.296;149.168;2023-05-24T01:49:33;96102.00;;;5.83;60.11
61814;BME280;57055;-35.296;149.168;2023-05-24T01:52:10;96095.91;;;6.01;60.03
61814;BME280;57055;-35.296;149.168;2023-05-24T01:54:44;96089.69;;;5.70;60.27
61814;BME280;57055;-35.296;149.168;2023-05-24T01:57:18;96087.30;;;6.14;60.36
61814;BME280;57055;-35.296;149.168;2023-05-24T01:59:49;96083.51;;;6.64;59.81
61814;BME280;57055;-35.296;149.168;2023-05-24T02:02:19;96076.94;;;6.58;59.40
61814;BME280;57055;-35.296;149.168;2023-05-24T02:04:49;96074.37;;;6.52;59.46
61814;BME280;57055;-35.296;149.168;2023-05-24T02:07:18;96065.84;;;6.89;58.99
61814;BME280;57055;-35.296;149.168;2023-05-24T02:09:46;96063.61;;;6.89;58.63
61814;BME280;57055;-35.296;149.168;2023-05-24T02:12:15;96056.93;;;7.10;58.26
61814;BME280;57055;-35.296;149.168;2023-05-24T02:14:43;96050.21;;;6.99;58.16
61814;BME280;57055;-35.296;149.168;2023-05-24T02:17:12;96041.60;;;7.21;57.72
61814;BME280;57055;-35.296;149.168;2023-05-24T02:19:41;96044.52;;;7.38;57.52
61814;BME280;57055;-35.296;149.168;2023-05-24T02:22:10;96044.12;;;7.26;57.11
61814;BME280;57055;-35.296;149.168;2023-05-24T02:24:39;96036.85;;;7.65;56.89
61814;BME280;57055;-35.296;149.168;2023-05-24T02:27:08;96032.46;;;7.56;56.60
61814;BME280;57055;-35.296;149.168;2023-05-24T02:29:37;96026.90;;;7.59;56.56
61814;BME280;57055;-35.296;149.168;2023-05-24T02:32:06;96023.21;;;7.68;56.40
61814;BME280;57055;-35.296;149.168;2023-05-24T02:34:35;96014.80;;;7.80;56.19
61814;BME280;57055;-35.296;149.168;2023-05-24T02:37:05;96007.02;;;7.66;55.86
61814;BME280;57055;-35.296;149.168;2023-05-24T02:39:34;96006.92;;;7.73;55.49
61814;BME280;57055;-35.296;149.168;2023-05-24T02:42:03;95998.36;;;7.68;55.36
61814;BME280;57055;-35.296;149.168;2023-05-24T02:44:31;95998.30;;;7.61;55.59
61814;BME280;57055;-35.296;149.168;2023-05-24T02:47:00;95992.71;;;7.81;55.83
61814;BME280;57055;-35.296;149.168;2023-05-24T02:49:29;95990.90;;;7.65;56.02
61814;BME280;57055;-35.296;149.168;2023-05-24T02:51:58;95989.68;;;7.72;56.01
61814;BME280;57055;-35.296;149.168;2023-05-24T02:54:27;95989.06;;;7.75;56.13
61814;BME280;57055;-35.296;149.168;2023-05-24T02:56:56;95988.60;;;7.89;56.08
61814;BME280;57055;-35.296;149.168;2023-05-24T02:59:25;95984.94;;;7.91;56.09
61814;BME280;57055;-35.296;149.168;2023-05-24T03:01:54;95980.42;;;8.05;55.99
61814;BME280;57055;-35.296;149.168;2023-05-24T03:04:22;95977.84;;;8.01;56.01
61814;BME280;57055;-35.296;149.168;2023-05-24T03:06:52;95977.06;;;8.17;55.83
61814;BME280;57055;-35.296;149.168;2023-05-24T03:09:21;95971.96;;;8.19;55.84
61814;BME280;57055;-35.296;149.168;2023-05-24T03:11:49;95968.26;;;8.19;55.84
61814;BME280;57055;-35.296;149.168;2023-05-24T03:14:18;95963.29;;;8.33;55.70
61814;BME280;57055;-35.296;149.168;2023-05-24T03:16:47;95962.28;;;8.31;55.52
61814;BME280;57055;-35.296;149.168;2023-05-24T03:19:16;95955.14;;;8.36;55.23
61814;BME280;57055;-35.296;149.168;2023-05-24T03:21:45;95952.42;;;8.54;54.57
61814;BME280;57055;-35.296;149.168;2023-05-24T03:24:14;95951.71;;;8.85;54.12
61814;BME280;57055;-35.296;149.168;2023-05-24T03:26:44;95953.26;;;8.72;53.76
61814;BME280;57055;-35.296;149.168;2023-05-24T03:29:12;95947.44;;;8.60;54.04
61814;BME280;57055;-35.296;149.168;2023-05-24T03:31:41;95950.31;;;8.30;54.75
61814;BME280;57055;-35.296;149.168;2023-05-24T03:34:10;95944.37;;;8.81;54.83
61814;BME280;57055;-35.296;149.168;2023-05-24T03:36:39;95939.68;;;9.02;54.73
61814;BME280;57055;-35.296;149.168;2023-05-24T03:39:08;95933.98;;;8.69;55.58
61814;BME280;57055;-35.296;149.168;2023-05-24T03:41:37;95930.85;;;8.91;55.54
61814;BME280;57055;-35.296;149.168;2023-05-24T03:44:06;95926.63;;;8.81;55.25
61814;BME280;57055;-35.296;149.168;2023-05-24T03:46:35;95923.50;;;8.83;55.16
61814;BME280;57055;-35.296;149.168;2023-05-24T03:49:05;95918.47;;;8.67;55.19
61814;BME280;57055;-35.296;149.168;2023-05-24T03:51:34;95915.88;;;8.94;54.15
61814;BME280;57055;-35.296;149.168;2023-05-24T03:54:03;95911.14;;;8.85;53.58
61814;BME280;57055;-35.296;149.168;2023-05-24T03:56:31;95903.66;;;8.84;53.51
61814;BME280;57055;-35.296;149.168;2023-05-24T03:59:00;95906.11;;;8.54;54.16
61814;BME280;57055;-35.296;149.168;2023-05-24T04:01:29;95900.17;;;8.83;54.21
61814;BME280;57055;-35.296;149.168;2023-05-24T04:03:59;95896.09;;;8.82;54.73
61814;BME280;57055;-35.296;149.168;2023-05-24T04:06:27;95897.28;;;8.48;54.92
61814;BME280;57055;-35.296;149.168;2023-05-24T04:08:57;95887.98;;;8.77;55.41
61814;BME280;57055;-35.296;149.168;2023-05-24T04:11:26;95884.79;;;8.56;55.78
61814;BME280;57055;-35.296;149.168;2023-05-24T04:13:56;95879.25;;;8.81;55.71
61814;BME280;57055;-35.296;149.168;2023-05-24T04:16:25;95880.07;;;8.87;55.95
61814;BME280;57055;-35.296;149.168;2023-05-24T04:18:55;95876.87;;;8.72;56.18
61814;BME280;57055;-35.296;149.168;2023-05-24T04:21:24;95872.93;;;8.83;56.72
61814;BME280;57055;-35.296;149.168;2023-05-24T04:23:53;95871.81;;;8.67;56.86
61814;BME280;57055;-35.296;149.168;2023-05-24T04:26:22;95873.74;;;8.72;56.81
61814;BME280;57055;-35.296;149.168;2023-05-24T04:28:52;95867.20;;;8.66;57.05
61814;BME280;57055;-35.296;149.168;2023-05-24T04:31:21;95863.36;;;8.91;57.27
61814;BME280;57055;-35.296;149.168;2023-05-24T04:33:50;95863.92;;;8.99;57.56
61814;BME280;57055;-35.296;149.168;2023-05-24T04:36:19;95862.29;;;8.79;57.52
61814;BME280;57055;-35.296;149.168;2023-05-24T04:38:48;95865.63;;;8.90;57.45
61814;BME280;57055;-35.296;149.168;2023-05-24T04:41:17;95866.94;;;8.99;56.81
61814;BME280;57055;-35.296;149.168;2023-05-24T04:43:45;95861.70;;;8.93;56.71
61814;BME280;57055;-35.296;149.168;2023-05-24T04:46:14;95858.88;;;8.83;56.77
61814;BME280;57055;-35.296;149.168;2023-05-24T04:48:43;95860.09;;;9.08;56.61
61814;BME280;57055;-35.296;149.168;2023-05-24T04:51:12;95853.34;;;8.93;56.32
61814;BME280;57055;-35.296;149.168;2023-05-24T04:53:41;95851.21;;;8.99;56.11
61814;BME280;57055;-35.296;149.168;2023-05-24T04:56:10;95849.86;;;8.71;56.27
61814;BME280;57055;-35.296;149.168;2023-05-24T04:58:39;95850.13;;;8.98;56.22
61814;BME280;57055;-35.296;149.168;2023-05-24T05:01:07;95852.23;;;9.25;56.25
61814;BME280;57055;-35.296;149.168;2023-05-24T05:03:37;95848.77;;;9.07;56.26
61814;BME280;57055;-35.296;149.168;2023-05-24T05:06:06;95845.53;;;8.95;56.22
61814;BME280;57055;-35.296;149.168;2023-05-24T05:08:35;95840.11;;;8.88;56.48
61814;BME280;57055;-35.296;149.168;2023-05-24T05:11:04;95842.80;;;8.84;56.49
61814;BME280;57055;-35.296;149.168;2023-05-24T05:13:32;95846.07;;;8.83;56.37
61814;BME280;57055;-35.296;149.168;2023-05-24T05:16:01;95842.16;;;9.07;56.23
61814;BME280;57055;-35.296;149.168;2023-05-24T05:18:36;95837.43;;;8.88;56.15
61814;BME280;57055;-35.296;149.168;2023-05-24T05:21:05;95832.91;;;9.06;56.42
61814;BME280;57055;-35.296;149.168;2023-05-24T05:23:34;95830.30;;;8.84;56.70
61814;BME280;57055;-35.296;149.168;2023-05-24T05:26:03;95827.32;;;9.26;56.73
61814;BME280;57055;-35.296;149.168;2023-05-24T05:28:31;95830.90;;;8.92;56.93
61814;BME280;57055;-35.296;149.168;2023-05-24T05:31:00;95827.73;;;9.09;57.05
61814;BME280;57055;-35.296;149.168;2023-05-24T05:33:31;95824.93;;;9.13;57.00
61814;BME280;57055;-35.296;149.168;2023-05-24T05:36:00;95822.77;;;8.67;56.74
61814;BME280;57055;-35.296;149.168;2023-05-24T05:38:29;95823.04;;;8.93;56.88
61814;BME280;57055;-35.296;149.168;2023-05-24T05:40:58;95823.09;;;8.94;56.78
61814;BME280;57055;-35.296;149.168;2023-05-24T05:43:27;95821.86;;;8.92;56.77
61814;BME280;57055;-35.296;149.168;2023-05-24T05:45:55;95818.00;;;9.09;56.80
61814;BME280;57055;-35.296;149.168;2023-05-24T05:48:24;95822.03;;;9.07;56.80
61814;BME280;57055;-35.296;149.168;2023-05-24T05:50:53;95822.95;;;9.12;56.45
61814;BME280;57055;-35.296;149.168;2023-05-24T05:53:22;95824.82;;;8.60;56.63
61814;BME280;57055;-35.296;149.168;2023-05-24T05:55:51;95822.60;;;9.09;56.68
61814;BME280;57055;-35.296;149.168;2023-05-24T05:58:20;95817.91;;;8.80;56.73
61814;BME280;57055;-35.296;149.168;2023-05-24T06:00:49;95815.98;;;9.05;56.52
61814;BME280;57055;-35.296;149.168;2023-05-24T06:03:18;95818.30;;;8.61;56.34
61814;BME280;57055;-35.296;149.168;2023-05-24T06:05:47;95813.80;;;8.83;56.10
61814;BME280;57055;-35.296;149.168;2023-05-24T06:08:16;95811.90;;;8.80;56.22
61814;BME280;57055;-35.296;149.168;2023-05-24T06:10:44;95807.84;;;8.73;56.35
61814;BME280;57055;-35.296;149.168;2023-05-24T06:13:13;95805.25;;;8.86;56.63
61814;BME280;57055;-35.296;149.168;2023-05-24T06:15:43;95801.64;;;8.83;56.64
61814;BME280;57055;-35.296;149.168;2023-05-24T06:18:11;95803.59;;;8.59;56.62
61814;BME280;57055;-35.296;149.168;2023-05-24T06:20:40;95803.26;;;8.79;56.18
61814;BME280;57055;-35.296;149.168;2023-05-24T06:23:09;95805.01;;;8.77;56.05
61814;BME280;57055;-35.296;149.168;2023-05-24T06:25:38;95807.62;;;8.72;55.98
61814;BME280;57055;-35.296;149.168;2023-05-24T06:28:07;95806.28;;;8.46;55.60
61814;BME280;57055;-35.296;149.168;2023-05-24T06:30:35;95798.67;;;8.61;55.74
61814;BME280;57055;-35.296;149.168;2023-05-24T06:33:04;95797.06;;;8.53;55.84
61814;BME280;57055;-35.296;149.168;2023-05-24T06:35:33;95793.48;;;8.50;55.65
61814;BME280;57055;-35.296;149.168;2023-05-24T06:38:03;95785.15;;;8.53;55.13
61814;BME280;57055;-35.296;149.168;2023-05-24T06:40:32;95780.28;;;8.46;55.05
61814;BME280;57055;-35.296;149.168;2023-05-24T06:43:01;95786.27;;;8.33;55.18
61814;BME280;57055;-35.296;149.168;2023-05-24T06:45:29;95791.08;;;8.23;55.31
61814;BME280;57055;-35.296;149.168;2023-05-24T06:47:58;95797.09;;;8.02;55.06
61814;BME280;57055;-35.296;149.168;2023-05-24T06:50:27;95791.98;;;8.21;55.06
61814;BME280;57055;-35.296;149.168;2023-05-24T06:52:56;95796.79;;;8.09;55.32
61814;BME280;57055;-35.296;149.168;2023-05-24T06:55:24;95800.94;;;7.99;55.28
61814;BME280;57055;-35.296;149.168;2023-05-24T06:57:53;95808.56;;;7.90;55.53
61814;BME280;57055;-35.296;149.168;2023-05-24T07:00:22;95805.05;;;7.77;55.63
61814;BME280;57055;-35.296;149.168;2023-05-24T07:02:51;95809.35;;;7.72;55.61
61814;BME280;57055;-35.296;149.168;2023-05-24T07:05:20;95810.40;;;7.63;55.72
61814;BME280;57055;-35.296;149.168;2023-05-24T07:07:48;95814.14;;;7.65;55.23
61814;BME280;57055;-35.296;149.168;2023-05-24T07:10:17;95816.44;;;7.59;55.42
61814;BME280;57055;-35.296;149.168;2023-05-24T07:12:46;95819.81;;;7.76;55.60
61814;BME280;57055;-35.296;149.168;2023-05-24T07:15:15;95822.20;;;7.38;55.95
61814;BME280;57055;-35.296;149.168;2023-05-24T07:17:44;95821.85;;;7.46;56.23
61814;BME280;57055;-35.296;149.168;2023-05-24T07:20:12;95826.94;;;7.05;56.72
61814;BME280;57055;-35.296;149.168;2023-05-24T07:22:41;95830.14;;;7.39;57.19
61814;BME280;57055;-35.296;149.168;2023-05-24T07:25:10;95833.80;;;7.29;57.38
61814;BME280;57055;-35.296;149.168;2023-05-24T07:27:39;95835.09;;;7.01;57.52
61814;BME280;57055;-35.296;149.168;2023-05-24T07:30:08;95838.95;;;7.26;57.16
61814;BME280;57055;-35.296;149.168;2023-05-24T07:32:37;95837.89;;;7.37;56.36
61814;BME280;57055;-35.296;149.168;2023-05-24T07:35:07;95836.71;;;7.12;56.43
61814;BME280;57055;-35.296;149.168;2023-05-24T07:37:35;95838.75;;;6.83;56.44
61814;BME280;57055;-35.296;149.168;2023-05-24T07:40:06;95842.11;;;7.38;56.10
61814;BME280;57055;-35.296;149.168;2023-05-24T07:42:36;95845.26;;;7.39;55.96
61814;BME280;57055;-35.296;149.168;2023-05-24T07:45:05;95849.53;;;7.31;55.87
61814;BME280;57055;-35.296;149.168;2023-05-24T07:47:34;95852.29;;;7.30;55.85
61814;BME280;57055;-35.296;149.168;2023-05-24T07:50:04;95851.94;;;7.24;56.08
61814;BME280;57055;-35.296;149.168;2023-05-24T07:52:34;95852.60;;;7.22;55.95
61814;BME280;57055;-35.296;149.168;2023-05-24T07:55:03;95854.95;;;7.27;55.85
61814;BME280;57055;-35.296;149.168;2023-05-24T07:57:32;95852.11;;;7.16;55.45
61814;BME280;57055;-35.296;149.168;2023-05-24T08:00:01;95854.19;;;7.49;55.13
61814;BME280;57055;-35.296;149.168;2023-05-24T08:02:30;95853.43;;;7.02;55.01
61814;BME280;57055;-35.296;149.168;2023-05-24T08:04:58;95853.68;;;7.27;55.03
61814;BME280;57055;-35.296;149.168;2023-05-24T08:07:27;95853.35;;;7.50;54.94
61814;BME280;57055;-35.296;149.168;2023-05-24T08:09:56;95848.25;;;6.98;54.83
61814;BME280;57055;-35.296;149.168;2023-05-24T08:12:25;95841.90;;;7.48;54.80
61814;BME280;57055;-35.296;149.168;2023-05-24T08:14:54;95845.69;;;7.59;55.02
61814;BME280;57055;-35.296;149.168;2023-05-24T08:17:23;95855.71;;;7.34;55.05
61814;BME280;57055;-35.296;149.168;2023-05-24T08:19:52;95861.82;;;7.35;55.01
61814;BME280;57055;-35.296;149.168;2023-05-24T08:22:43;95869.35;;;7.37;54.77
61814;BME280;57055;-35.296;149.168;2023-05-24T08:25:11;95868.56;;;7.24;55.21
61814;BME280;57055;-35.296;149.168;2023-05-24T08:27:41;95869.04;;;7.13;55.43
61814;BME280;57055;-35.296;149.168;2023-05-24T08:30:10;95871.50;;;7.11;55.53
61814;BME280;57055;-35.296;149.168;2023-05-24T08:32:39;95863.82;;;7.17;55.48
61814;BME280;57055;-35.296;149.168;2023-05-24T08:35:08;95863.79;;;7.04;55.40
61814;BME280;57055;-35.296;149.168;2023-05-24T08:37:37;95865.35;;;6.93;55.73
61814;BME280;57055;-35.296;149.168;2023-05-24T08:40:08;95866.02;;;7.09;55.78
61814;BME280;57055;-35.296;149.168;2023-05-24T08:42:38;95866.72;;;6.71;56.14
61814;BME280;57055;-35.296;149.168;2023-05-24T08:45:11;95858.32;;;6.79;57.15
61814;BME280;57055;-35.296;149.168;2023-05-24T08:47:40;95854.60;;;6.62;56.93
61814;BME280;57055;-35.296;149.168;2023-05-24T08:50:11;95851.10;;;6.50;56.82
61814;BME280;57055;-35.296;149.168;2023-05-24T08:52:41;95852.64;;;6.55;57.33
61814;BME280;57055;-35.296;149.168;2023-05-24T08:55:11;95855.33;;;6.39;57.71
61814;BME280;57055;-35.296;149.168;2023-05-24T08:57:40;95854.46;;;6.36;57.80
61814;BME280;57055;-35.296;149.168;2023-05-24T09:00:11;95854.12;;;6.57;57.27
61814;BME280;57055;-35.296;149.168;2023-05-24T09:02:41;95858.93;;;6.42;57.61
61814;BME280;57055;-35.296;149.168;2023-05-24T09:05:12;95856.12;;;6.35;57.73
61814;BME280;57055;-35.296;149.168;2023-05-24T09:07:43;95851.36;;;6.33;57.68
61814;BME280;57055;-35.296;149.168;2023-05-24T09:10:13;95852.48;;;6.25;57.33
61814;BME280;57055;-35.296;149.168;2023-05-24T09:12:46;95855.31;;;6.14;57.49
61814;BME280;57055;-35.296;149.168;2023-05-24T09:15:15;95855.23;;;6.23;57.52
61814;BME280;57055;-35.296;149.168;2023-05-24T09:17:44;95845.79;;;6.07;57.69
61814;BME280;57055;-35.296;149.168;2023-05-24T09:20:13;95850.52;;;5.74;57.95
61814;BME280;57055;-35.296;149.168;2023-05-24T09:22:43;95855.78;;;5.94;58.01
61814;BME280;57055;-35.296;149.168;2023-05-24T09:25:14;95851.86;;;5.89;58.18
61814;BME280;57055;-35.296;149.168;2023-05-24T09:27:51;95844.35;;;5.98;58.31
61814;BME280;57055;-35.296;149.168;2023-05-24T09:30:21;95847.73;;;5.61;58.42
61814;BME280;57055;-35.296;149.168;2023-05-24T09:32:58;95850.06;;;5.57;58.62
61814;BME280;57055;-35.296;149.168;2023-05-24T09:35:28;95855.10;;;5.56;58.61
61814;BME280;57055;-35.296;149.168;2023-05-24T09:37:58;95856.08;;;5.53;58.48
61814;BME280;57055;-35.296;149.168;2023-05-24T09:40:29;95848.47;;;5.45;58.55
61814;BME280;57055;-35.296;149.168;2023-05-24T09:43:06;95855.94;;;5.40;58.53
61814;BME280;57055;-35.296;149.168;2023-05-24T09:45:42;95863.75;;;5.34;58.47
61814;BME280;57055;-35.296;149.168;2023-05-24T09:48:13;95869.79;;;5.25;58.59
61814;BME280;57055;-35.296;149.168;2023-05-24T09:50:43;95872.91;;;5.40;58.54
61814;BME280;57055;-35.296;149.168;2023-05-24T09:53:12;95876.12;;;5.34;58.30
61814;BME280;57055;-35.296;149.168;2023-05-24T09:55:44;95877.05;;;5.28;58.35
61814;BME280;57055;-35.296;149.168;2023-05-24T09:58:13;95880.52;;;4.91;58.50
61814;BME280;57055;-35.296;149.168;2023-05-24T10:00:44;95887.31;;;5.26;58.83
61814;BME280;57055;-35.296;149.168;2023-05-24T10:03:12;95891.78;;;5.00;58.93
61814;BME280;57055;-35.296;149.168;2023-05-24T10:05:44;95889.34;;;5.00;59.15
61814;BME280;57055;-35.296;149.168;2023-05-24T10:08:13;95891.66;;;4.94;59.49
61814;BME280;57055;-35.296;149.168;2023-05-24T10:10:45;95889.61;;;4.86;59.57
61814;BME280;57055;-35.296;149.168;2023-05-24T10:13:15;95887.25;;;5.01;59.71
61814;BME280;57055;-35.296;149.168;2023-05-24T10:15:45;95882.50;;;4.93;59.41
61814;BME280;57055;-35.296;149.168;2023-05-24T10:18:14;95885.21;;;4.82;59.30
61814;BME280;57055;-35.296;149.168;2023-05-24T10:20:43;95884.08;;;4.53;59.28
61814;BME280;57055;-35.296;149.168;2023-05-24T10:23:17;95875.84;;;5.06;59.16
61814;BME280;57055;-35.296;149.168;2023-05-24T10:25:57;95871.68;;;4.83;58.97
61814;BME280;57055;-35.296;149.168;2023-05-24T10:28:27;95874.91;;;4.56;59.08
61814;BME280;57055;-35.296;149.168;2023-05-24T10:31:04;95878.64;;;4.76;58.94
61814;BME280;57055;-35.296;149.168;2023-05-24T10:33:36;95876.59;;;4.75;58.97
61814;BME280;57055;-35.296;149.168;2023-05-24T10:36:08;95875.30;;;4.92;59.00
61814;BME280;57055;-35.296;149.168;2023-05-24T10:38:38;95878.69;;;4.54;59.12
61814;BME280;57055;-35.296;149.168;2023-05-24T10:41:08;95878.75;;;4.46;59.15
61814;BME280;57055;-35.296;149.168;2023-05-24T10:43:38;95878.13;;;4.28;59.42
61814;BME280;57055;-35.296;149.168;2023-05-24T10:46:09;95877.44;;;4.17;59.56
61814;BME280;57055;-35.296;149.168;2023-05-24T10:48:39;95872.23;;;4.41;59.22
61814;BME280;57055;-35.296;149.168;2023-05-24T10:51:40;95876.71;;;4.21;59.47
61814;BME280;57055;-35.296;149.168;2023-05-24T10:54:14;95878.94;;;4.19;59.29
61814;BME280;57055;-35.296;149.168;2023-05-24T10:56:47;95876.53;;;4.12;59.59
61814;BME280;57055;-35.296;149.168;2023-05-24T10:59:30;95875.97;;;4.12;59.41
61814;BME280;57055;-35.296;149.168;2023-05-24T11:01:59;95878.21;;;4.06;59.69
61814;BME280;57055;-35.296;149.168;2023-05-24T11:04:32;95874.25;;;4.15;60.16
61814;BME280;57055;-35.296;149.168;2023-05-24T11:07:03;95868.98;;;3.93;59.55
61814;BME280;57055;-35.296;149.168;2023-05-24T11:09:33;95870.88;;;3.93;59.46
61814;BME280;57055;-35.296;149.168;2023-05-24T11:12:05;95874.62;;;4.22;59.18
61814;BME280;57055;-35.296;149.168;2023-05-24T11:14:37;95874.26;;;4.20;59.18
61814;BME280;57055;-35.296;149.168;2023-05-24T11:17:07;95873.05;;;4.13;59.21
61814;BME280;57055;-35.296;149.168;2023-05-24T11:19:39;95872.98;;;4.28;59.25
61814;BME280;57055;-35.296;149.168;2023-05-24T11:22:14;95867.73;;;4.18;59.59
61814;BME280;57055;-35.296;149.168;2023-05-24T11:24:44;95869.57;;;4.14;59.26
61814;BME280;57055;-35.296;149.168;2023-05-24T11:27:14;95861.78;;;3.63;59.57
61814;BME280;57055;-35.296;149.168;2023-05-24T11:29:45;95865.72;;;3.93;59.82
61814;BME280;57055;-35.296;149.168;2023-05-24T11:32:19;95865.60;;;3.83;59.96
61814;BME280;57055;-35.296;149.168;2023-05-24T11:34:49;95861.82;;;3.50;60.22
61814;BME280;57055;-35.296;149.168;2023-05-24T11:37:18;95859.79;;;3.75;60.03
61814;BME280;57055;-35.296;149.168;2023-05-24T11:39:50;95858.50;;;3.78;59.93
61814;BME280;57055;-35.296;149.168;2023-05-24T11:42:20;95854.04;;;3.65;60.15
61814;BME280;57055;-35.296;149.168;2023-05-24T11:44:50;95855.86;;;3.55;60.40
61814;BME280;57055;-35.296;149.168;2023-05-24T11:47:20;95852.98;;;3.31;60.16
61814;BME280;57055;-35.296;149.168;2023-05-24T11:49:50;95853.90;;;3.25;60.18
61814;BME280;57055;-35.296;149.168;2023-05-24T11:52:20;95851.04;;;3.35;60.02
61814;BME280;57055;-35.296;149.168;2023-05-24T11:54:49;95851.13;;;3.34;59.61
61814;BME280;57055;-35.296;149.168;2023-05-24T11:57:25;95849.79;;;3.16;60.29
61814;BME280;57055;-35.296;149.168;2023-05-24T11:59:54;95852.36;;;3.23;59.92
61814;BME280;57055;-35.296;149.168;2023-05-24T12:02:23;95851.65;;;3.12;60.11
61814;BME280;57055;-35.296;149.168;2023-05-24T12:04:52;95846.71;;;3.04;60.39
61814;BME280;57055;-35.296;149.168;2023-05-24T12:07:23;95849.89;;;3.01;60.20
61814;BME280;57055;-35.296;149.168;2023-05-24T12:09:52;95853.07;;;3.00;59.90
61814;BME280;57055;-35.296;149.168;2023-05-24T12:12:22;95856.23;;;3.01;59.74
61814;BME280;57055;-35.296;149.168;2023-05-24T12:14:55;95847.87;;;2.99;59.61
61814;BME280;57055;-35.296;149.168;2023-05-24T12:17:24;95844.10;;;2.92;59.62
61814;BME280;57055;-35.296;149.168;2023-05-24T12:19:53;95844.68;;;2.93;59.48
61814;BME280;57055;-35.296;149.168;2023-05-24T12:22:27;95841.66;;;2.72;59.46
61814;BME280;57055;-35.296;149.168;2023-05-24T12:24:58;95837.64;;;2.95;59.18
61814;BME280;57055;-35.296;149.168;2023-05-24T12:27:28;95838.92;;;2.85;59.68
61814;BME280;57055;-35.296;149.168;2023-05-24T12:30:06;95833.86;;;3.08;59.98
61814;BME280;57055;-35.296;149.168;2023-05-24T12:32:34;95830.97;;;2.76;60.06
61814;BME280;57055;-35.296;149.168;2023-05-24T12:35:05;95824.75;;;2.73;60.28
61814;BME280;57055;-35.296;149.168;2023-05-24T12:37:34;95818.78;;;3.15;60.08
61814;BME280;57055;-35.296;149.168;2023-05-24T12:40:12;95818.31;;;2.94;59.79
61814;BME280;57055;-35.296;149.168;2023-05-24T12:42:43;95815.64;;;2.70;59.32
61814;BME280;57055;-35.296;149.168;2023-05-24T12:45:12;95811.61;;;3.07;59.81
61814;BME280;57055;-35.296;149.168;2023-05-24T12:47:41;95812.34;;;2.75;59.75
61814;BME280;57055;-35.296;149.168;2023-05-24T12:50:10;95805.02;;;2.73;59.70
61814;BME280;57055;-35.296;149.168;2023-05-24T12:52:39;95806.91;;;2.93;60.07
61814;BME280;57055;-35.296;149.168;2023-05-24T12:55:08;95801.42;;;2.79;59.51